Time;durP1;ratioP1;P1;durP2;ratioP2;P2;SDS_P1;SDS_P2;PMS_P1;PMS_P2;Temp;Humidity;BMP_temperature;BMP_pressure;BME280_temperature;BME280_humidity;BME280_pressure;Samples;Min_cycle;Max_cycle;Signal;HPM_P1;HPM_P2
2023/10/08 00:15:25;;;;;;;8.13;3.50;;;19.20;99.90;;;;;;4582794;19;20087;-69
2023/10/08 00:17:01;;;;;;;10.50;3.45;;;19.20;99.90;;;;;;4593628;19;20007;-69
2023/10/08 00:18:42;;;;;;;8.82;3.63;;;19.20;99.90;;;;;;4593703;19;19995;-69
2023/10/08 00:20:25;;;;;;;7.15;3.30;;;19.20;99.90;;;;;;4591265;19;20131;-69
2023/10/08 00:22:05;;;;;;;9.38;3.90;;;19.20;99.90;;;;;;4591351;19;20006;-69
2023/10/08 00:23:43;;;;;;;9.68;3.63;;;19.20;99.90;;;;;;4591737;19;20006;-69
2023/10/08 00:25:17;;;;;;;10.40;3.90;;;19.30;99.90;;;;;;4590413;19;20010;-69
2023/10/08 00:26:54;;;;;;;8.73;3.70;;;19.20;99.90;;;;;;4591306;19;20006;-69
2023/10/08 00:28:28;;;;;;;12.32;3.75;;;19.20;99.90;;;;;;4591598;19;20078;-69
2023/10/08 00:30:11;;;;;;;11.63;4.32;;;19.20;99.90;;;;;;4591451;19;20005;-69
2023/10/08 00:31:49;;;;;;;9.85;3.88;;;19.20;99.90;;;;;;4591219;19;20066;-69
2023/10/08 00:33:24;;;;;;;8.70;3.55;;;19.20;99.90;;;;;;4591522;19;20011;-69
2023/10/08 00:34:58;;;;;;;9.77;3.85;;;19.20;99.90;;;;;;4590597;19;20365;-69
2023/10/08 00:36:34;;;;;;;11.65;4.90;;;19.30;99.90;;;;;;4591143;19;20464;-69
2023/10/08 00:38:20;;;;;;;11.15;4.40;;;19.20;99.90;;;;;;4591304;19;19998;-69
2023/10/08 00:39:56;;;;;;;6.70;3.25;;;19.20;99.90;;;;;;4591119;19;20006;-69
2023/10/08 00:41:33;;;;;;;10.43;4.05;;;19.20;99.90;;;;;;4591269;19;20110;-69
2023/10/08 00:43:10;;;;;;;11.93;4.38;;;19.20;99.90;;;;;;4590958;19;20007;-69
2023/10/08 00:44:51;;;;;;;11.80;4.53;;;19.20;99.90;;;;;;4590742;19;20472;-69
2023/10/08 00:46:35;;;;;;;10.70;3.55;;;19.20;99.90;;;;;;4591193;19;20105;-69
2023/10/08 00:48:17;;;;;;;10.73;4.00;;;19.20;99.90;;;;;;4590904;19;20006;-69
2023/10/08 00:50:04;;;;;;;10.38;3.33;;;19.20;99.90;;;;;;4588913;19;20030;-68
2023/10/08 00:51:40;;;;;;;10.18;4.15;;;19.20;99.90;;;;;;4591168;19;20482;-68
2023/10/08 00:53:23;;;;;;;7.47;4.07;;;19.20;99.90;;;;;;4592824;19;19998;-69
2023/10/08 00:57:13;;;;;;;8.23;3.37;;;19.20;99.90;;;;;;4591718;19;20007;-69
2023/10/08 00:58:46;;;;;;;8.55;3.47;;;19.20;99.90;;;;;;4591225;19;20018;-68
2023/10/08 01:00:21;;;;;;;6.75;2.60;;;19.20;99.90;;;;;;4591837;19;20014;-69
2023/10/08 01:02:04;;;;;;;8.23;3.72;;;19.20;99.90;;;;;;4592830;19;20069;-68
2023/10/08 01:03:44;;;;;;;8.20;2.97;;;19.20;99.90;;;;;;4591808;19;20421;-69
2023/10/08 01:05:23;;;;;;;7.72;3.15;;;19.20;99.90;;;;;;4590892;19;20485;-69
2023/10/08 01:07:01;;;;;;;10.32;3.70;;;19.20;99.90;;;;;;4592797;19;20029;-69
2023/10/08 01:08:36;;;;;;;7.88;2.95;;;19.20;99.90;;;;;;4591469;19;19998;-69
2023/10/08 01:10:10;;;;;;;8.90;3.00;;;19.20;99.90;;;;;;4591322;19;19999;-69
2023/10/08 01:11:49;;;;;;;6.95;3.10;;;19.20;99.90;;;;;;4592370;19;20025;-69
2023/10/08 01:13:26;;;;;;;7.70;3.05;;;19.20;99.90;;;;;;4592839;19;20014;-69
2023/10/08 01:15:23;;;;;;;8.27;3.30;;;19.20;99.90;;;;;;4591623;19;20010;-68
2023/10/08 01:16:58;;;;;;;7.60;3.05;;;19.20;99.90;;;;;;4591208;19;20010;-68
2023/10/08 01:18:35;;;;;;;9.90;3.65;;;19.20;99.90;;;;;;4592736;19;20066;-69
2023/10/08 01:20:20;;;;;;;8.98;3.30;;;19.20;99.90;;;;;;4592760;19;20447;-69
2023/10/08 01:21:59;;;;;;;8.88;2.88;;;19.20;99.90;;;;;;4592426;19;20037;-69
2023/10/08 01:23:33;;;;;;;7.80;3.00;;;19.20;99.90;;;;;;4592783;19;20014;-69
2023/10/08 01:25:10;;;;;;;9.00;3.20;;;19.20;99.90;;;;;;4591844;19;20016;-69
2023/10/08 01:26:45;;;;;;;9.90;3.53;;;19.20;99.90;;;;;;4591047;19;20007;-69
2023/10/08 01:28:33;;;;;;;7.70;2.97;;;19.20;99.90;;;;;;4590917;19;19999;-69
2023/10/08 01:30:17;;;;;;;8.30;3.47;;;19.20;99.90;;;;;;4592330;19;20013;-69
2023/10/08 01:31:56;;;;;;;8.30;2.78;;;19.20;99.90;;;;;;4592524;19;20303;-69
2023/10/08 01:33:31;;;;;;;8.38;2.70;;;19.20;99.90;;;;;;4592098;19;20006;-69
2023/10/08 01:35:21;;;;;;;8.02;2.85;;;19.20;99.90;;;;;;4591375;19;20029;-69
2023/10/08 01:37:04;;;;;;;7.85;2.83;;;19.20;99.90;;;;;;4592494;19;20010;-69
2023/10/08 01:38:38;;;;;;;5.32;2.25;;;19.10;99.90;;;;;;4592466;19;20040;-69
2023/10/08 01:40:12;;;;;;;4.63;2.47;;;19.20;99.90;;;;;;4592066;19;20010;-69
2023/10/08 01:41:51;;;;;;;6.85;2.22;;;19.20;99.90;;;;;;4592116;19;20007;-69
2023/10/08 01:43:27;;;;;;;5.40;2.08;;;19.20;99.90;;;;;;4592000;19;20018;-69
2023/10/08 01:45:01;;;;;;;5.07;2.13;;;19.20;99.90;;;;;;4591599;19;20014;-68
2023/10/08 01:46:36;;;;;;;6.28;2.28;;;19.10;99.90;;;;;;4592317;19;20003;-69
2023/10/08 01:48:10;;;;;;;5.15;2.05;;;19.10;99.90;;;;;;4591934;19;20006;-69
2023/10/08 01:49:45;;;;;;;4.53;2.13;;;19.10;99.90;;;;;;4591907;19;19999;-69
2023/10/08 01:51:37;;;;;;;5.57;1.88;;;19.10;99.90;;;;;;4590641;19;20006;-69
2023/10/08 01:53:11;;;;;;;4.53;2.00;;;19.10;99.90;;;;;;4590882;19;20447;-69
2023/10/08 01:54:45;;;;;;;4.07;2.03;;;19.10;99.90;;;;;;4590796;19;20014;-69
2023/10/08 01:56:21;;;;;;;3.42;1.60;;;19.10;99.90;;;;;;4592106;19;19998;-69
2023/10/08 01:57:55;;;;;;;4.82;1.67;;;19.10;99.90;;;;;;4591785;19;20009;-69
2023/10/08 01:59:32;;;;;;;3.10;1.30;;;19.10;99.90;;;;;;4590532;19;20031;-68
2023/10/08 02:01:11;;;;;;;4.03;1.40;;;19.10;99.90;;;;;;4592573;19;20009;-69
2023/10/08 02:02:50;;;;;;;4.40;1.77;;;19.10;99.90;;;;;;4596529;19;20030;-69
2023/10/08 02:04:25;;;;;;;3.65;1.52;;;19.10;99.90;;;;;;4594826;19;20011;-69
2023/10/08 02:06:05;;;;;;;3.70;1.35;;;19.10;99.90;;;;;;4596209;19;20001;-69
2023/10/08 02:07:41;;;;;;;4.05;1.30;;;19.10;99.90;;;;;;4596741;19;20006;-69
2023/10/08 02:09:15;;;;;;;2.88;1.23;;;19.00;99.90;;;;;;4596590;19;20025;-69
2023/10/08 02:10:50;;;;;;;4.53;1.48;;;19.00;99.90;;;;;;4595039;19;20013;-69
2023/10/08 02:12:25;;;;;;;3.60;1.20;;;19.00;99.90;;;;;;4596228;19;20006;-69
2023/10/08 02:13:58;;;;;;;2.88;0.90;;;19.00;99.90;;;;;;4595821;19;20003;-69
2023/10/08 02:15:34;;;;;;;3.08;1.20;;;19.00;99.90;;;;;;4594563;19;20019;-69
2023/10/08 02:17:09;;;;;;;2.25;1.05;;;19.10;99.90;;;;;;4594882;19;20078;-69
2023/10/08 02:18:44;;;;;;;2.40;1.10;;;19.00;99.90;;;;;;4595889;19;20013;-69
2023/10/08 02:20:19;;;;;;;2.67;1.10;;;19.00;99.90;;;;;;4596290;19;20069;-69
2023/10/08 02:21:54;;;;;;;2.58;1.23;;;19.00;99.90;;;;;;4596152;19;20393;-69
2023/10/08 02:23:28;;;;;;;2.92;1.25;;;19.00;99.90;;;;;;4594715;19;20022;-68
2023/10/08 02:25:05;;;;;;;2.47;1.20;;;19.00;99.90;;;;;;4594691;19;20481;-69
2023/10/08 02:26:39;;;;;;;2.15;1.00;;;19.00;99.90;;;;;;4596360;19;20013;-69
2023/10/08 02:28:15;;;;;;;3.28;1.10;;;19.00;99.90;;;;;;4594697;19;20077;-69
2023/10/08 02:29:51;;;;;;;2.78;1.02;;;19.00;99.90;;;;;;4595737;19;20006;-68
2023/10/08 02:31:25;;;;;;;4.07;1.10;;;19.00;99.90;;;;;;4595897;19;20003;-69
2023/10/08 02:33:00;;;;;;;2.15;0.98;;;19.00;99.90;;;;;;4596109;19;20003;-69
2023/10/08 02:34:38;;;;;;;2.72;1.00;;;19.00;99.90;;;;;;4594407;19;20370;-69
2023/10/08 02:36:13;;;;;;;3.22;1.08;;;19.00;99.90;;;;;;4596132;19;20006;-69
2023/10/08 02:37:48;;;;;;;2.85;0.98;;;19.00;99.90;;;;;;4596244;19;20418;-69
2023/10/08 02:39:26;;;;;;;1.52;0.85;;;19.00;99.90;;;;;;4595802;19;20309;-68
2023/10/08 02:41:00;;;;;;;2.78;1.17;;;19.00;99.90;;;;;;4595800;19;20007;-69
2023/10/08 02:42:36;;;;;;;1.98;1.00;;;19.00;99.90;;;;;;4595974;19;20021;-69
2023/10/08 02:44:14;;;;;;;2.25;0.80;;;19.00;99.90;;;;;;4595991;19;20014;-69
2023/10/08 02:45:49;;;;;;;3.17;1.00;;;18.90;99.90;;;;;;4595686;19;20021;-69
2023/10/08 02:47:23;;;;;;;2.72;1.02;;;19.00;99.90;;;;;;4595884;19;19995;-69
2023/10/08 02:48:58;;;;;;;2.22;0.70;;;18.90;99.90;;;;;;4594243;19;20038;-69
2023/10/08 02:50:32;;;;;;;2.08;0.90;;;18.90;99.90;;;;;;4595164;19;20003;-69
2023/10/08 02:52:08;;;;;;;3.55;0.70;;;19.00;99.90;;;;;;4595480;19;19999;-69
2023/10/08 02:53:43;;;;;;;1.80;0.85;;;19.00;99.90;;;;;;4595139;19;20386;-69
2023/10/08 02:55:36;;;;;;;1.23;0.80;;;19.00;99.90;;;;;;4594384;19;20310;-69
2023/10/08 02:57:14;;;;;;;2.75;0.82;;;19.00;99.90;;;;;;4595325;19;20010;-69
2023/10/08 02:58:51;;;;;;;2.03;1.00;;;19.00;99.90;;;;;;4595454;19;20009;-69
2023/10/08 03:00:29;;;;;;;1.27;0.70;;;19.00;99.90;;;;;;4595293;19;20003;-69
2023/10/08 03:02:03;;;;;;;1.83;0.80;;;18.90;99.90;;;;;;4594044;19;20037;-69
2023/10/08 03:03:41;;;;;;;1.75;0.70;;;18.90;99.90;;;;;;4594960;19;20023;-69
2023/10/08 03:05:19;;;;;;;1.88;0.77;;;18.90;99.90;;;;;;4592682;19;20425;-69
2023/10/08 03:06:53;;;;;;;2.08;0.80;;;18.90;99.90;;;;;;4594196;19;20017;-69
2023/10/08 03:08:31;;;;;;;2.28;0.93;;;18.90;99.90;;;;;;4594809;19;20003;-69
2023/10/08 03:10:17;;;;;;;2.08;0.75;;;18.90;99.90;;;;;;4595442;19;20030;-69
2023/10/08 03:11:52;;;;;;;1.77;0.90;;;18.80;99.90;;;;;;4595097;19;20009;-69
2023/10/08 03:13:27;;;;;;;2.55;0.80;;;18.80;99.90;;;;;;4591767;19;20007;-69
2023/10/08 03:17:07;;;;;;;1.80;0.75;;;18.80;99.90;;;;;;4595033;19;20350;-69
2023/10/08 03:18:50;;;;;;;1.27;0.60;;;18.80;99.90;;;;;;4593634;19;20070;-69
2023/10/08 03:20:30;;;;;;;2.35;0.90;;;18.80;99.90;;;;;;4594936;19;20014;-69
2023/10/08 03:22:12;;;;;;;1.45;0.70;;;18.90;99.90;;;;;;4594970;19;20003;-69
2023/10/08 03:23:58;;;;;;;2.60;0.80;;;18.90;99.90;;;;;;4593822;19;20352;-69
2023/10/08 03:25:33;;;;;;;1.75;0.60;;;18.90;99.90;;;;;;4592372;19;20414;-69
2023/10/08 03:27:12;;;;;;;1.58;0.75;;;18.90;99.90;;;;;;4594651;19;20074;-69
2023/10/08 03:28:57;;;;;;;2.95;0.80;;;18.90;99.90;;;;;;4594822;19;20022;-69
2023/10/08 03:30:31;;;;;;;1.77;0.70;;;18.90;99.80;;;;;;4594796;19;20006;-69
2023/10/08 03:32:07;;;;;;;1.25;0.60;;;18.90;99.70;;;;;;4594760;19;20011;-69
2023/10/08 03:33:48;;;;;;;1.35;0.70;;;18.90;99.60;;;;;;4594701;19;20062;-69
2023/10/08 03:35:27;;;;;;;1.58;0.60;;;18.90;99.70;;;;;;4592095;19;20011;-69
2023/10/08 03:37:07;;;;;;;1.63;0.63;;;18.90;99.40;;;;;;4594442;19;19998;-69
2023/10/08 03:38:50;;;;;;;1.65;0.60;;;18.90;99.20;;;;;;4594625;19;20007;-69
2023/10/08 03:42:07;;;;;;;2.58;0.60;;;18.90;99.10;;;;;;4594781;19;20007;-69
2023/10/08 03:43:52;;;;;;;1.33;0.60;;;19.00;99.20;;;;;;4594517;19;20492;-69
2023/10/08 03:47:18;;;;;;;1.02;0.50;;;18.90;99.00;;;;;;4594722;19;20006;-69
2023/10/08 03:48:57;;;;;;;2.08;0.70;;;18.90;99.00;;;;;;4594387;19;20006;-69
2023/10/08 03:50:40;;;;;;;1.40;0.77;;;18.90;99.00;;;;;;4594342;19;20007;-69
2023/10/08 03:52:16;;;;;;;1.83;0.70;;;18.90;98.90;;;;;;4594347;19;20006;-69
2023/10/08 03:53:59;;;;;;;1.52;0.70;;;18.90;98.80;;;;;;4592782;19;20006;-69
2023/10/08 03:55:35;;;;;;;;;;;18.90;98.80;;;;;;4593862;19;20041;-69
2023/10/08 03:57:25;;;;;;;2.25;0.80;;;18.90;98.60;;;;;;4594446;19;19925;-72
2023/10/08 03:59:12;;;;;;;1.23;0.60;;;18.80;97.70;;;;;;4592881;19;20006;-69
2023/10/08 04:00:46;;;;;;;1.05;0.50;;;18.90;97.60;;;;;;4593940;19;20006;-69
2023/10/08 04:02:39;;;;;;;1.73;0.50;;;18.90;97.40;;;;;;4594328;19;20003;-68
2023/10/08 04:04:14;;;;;;;0.90;0.43;;;18.90;96.60;;;;;;4592499;19;20314;-69
2023/10/08 04:06:14;;;;;;;1.45;0.50;;;19.00;96.40;;;;;;4593812;19;20315;-69
2023/10/08 04:08:16;;;;;;;1.40;0.70;;;19.10;96.10;;;;;;4593684;19;20006;-69
2023/10/08 04:09:39;;;;;;;1.65;0.60;;;19.20;95.50;;;;;;4593637;19;20033;-68
2023/10/08 04:11:35;;;;;;;1.92;0.50;;;19.20;94.90;;;;;;4592431;19;20490;-69
2023/10/08 04:13:09;;;;;;;1.77;0.60;;;19.30;95.20;;;;;;4593839;19;20007;-69
2023/10/08 04:14:45;;;;;;;0.88;0.47;;;19.30;95.10;;;;;;4591008;19;20022;-68
2023/10/08 04:16:20;;;;;;;3.90;0.60;;;19.40;95.20;;;;;;4593419;19;20035;-69
2023/10/08 04:17:56;;;;;;;1.35;0.60;;;19.50;95.30;;;;;;4593745;19;20007;-69
2023/10/08 04:19:32;;;;;;;0.88;0.45;;;19.50;95.10;;;;;;4592439;19;19999;-69
2023/10/08 04:21:09;;;;;;;3.20;0.50;;;19.50;94.90;;;;;;4593581;19;20003;-69
2023/10/08 04:22:43;;;;;;;1.65;0.57;;;19.50;95.30;;;;;;4593664;19;20010;-68
2023/10/08 04:24:19;;;;;;;1.58;0.43;;;19.50;95.10;;;;;;4593185;19;20007;-69
2023/10/08 04:25:54;;;;;;;2.47;0.50;;;19.50;94.80;;;;;;4593784;19;20002;-69
2023/10/08 04:27:30;;;;;;;1.33;0.60;;;19.50;94.60;;;;;;4593539;19;20025;-69
2023/10/08 04:29:08;;;;;;;1.88;0.88;;;19.50;94.50;;;;;;4593791;19;20006;-69
2023/10/08 04:30:43;;;;;;;1.40;0.60;;;19.50;94.40;;;;;;4593822;19;20013;-69
2023/10/08 04:32:24;;;;;;;1.50;0.60;;;19.40;94.40;;;;;;4593401;19;20006;-68
2023/10/08 04:34:00;;;;;;;1.70;0.50;;;19.40;94.20;;;;;;4593318;19;20007;-69
2023/10/08 04:35:47;;;;;;;1.48;0.57;;;19.40;94.00;;;;;;4592430;19;20402;-69
2023/10/08 04:37:21;;;;;;;0.95;0.40;;;19.40;93.90;;;;;;4592314;19;20029;-69
2023/10/08 04:39:04;;;;;;;1.67;0.50;;;19.40;93.60;;;;;;4593085;19;20074;-69
2023/10/08 04:40:48;;;;;;;1.08;0.50;;;19.40;93.70;;;;;;4593541;19;20013;-68
2023/10/08 04:42:26;;;;;;;3.80;0.65;;;19.30;93.30;;;;;;4593292;19;20363;-69
2023/10/08 04:44:07;;;;;;;0.98;0.50;;;19.20;93.20;;;;;;4593198;19;20021;-68
2023/10/08 04:45:43;;;;;;;1.02;0.52;;;19.30;92.70;;;;;;4593373;19;20317;-68
2023/10/08 04:47:31;;;;;;;1.88;0.60;;;19.20;92.90;;;;;;4591743;19;20425;-68
2023/10/08 04:49:19;;;;;;;1.98;0.65;;;19.20;92.70;;;;;;4593039;19;20016;-69
2023/10/08 04:50:59;;;;;;;1.70;0.63;;;19.20;92.80;;;;;;4592902;19;20014;-68
2023/10/08 04:52:34;;;;;;;3.20;1.13;;;19.20;92.80;;;;;;4593310;19;20421;-69
2023/10/08 04:54:16;;;;;;;3.03;1.20;;;19.20;92.90;;;;;;4592549;19;20010;-69
2023/10/08 04:55:50;;;;;;;2.05;0.93;;;19.30;92.90;;;;;;4592924;19;20011;-68
2023/10/08 04:57:25;;;;;;;1.77;0.70;;;19.30;92.80;;;;;;4592937;19;20006;-69
2023/10/08 04:59:01;;;;;;;1.63;0.50;;;19.30;92.80;;;;;;4592690;19;20010;-68
2023/10/08 05:00:53;;;;;;;2.03;0.65;;;19.30;92.90;;;;;;4592713;19;19999;-68
2023/10/08 05:02:48;;;;;;;2.22;0.77;;;19.30;92.70;;;;;;4591806;19;20010;-69
2023/10/08 05:04:32;;;;;;;2.58;1.05;;;19.30;92.80;;;;;;4592358;19;19999;-68
2023/10/08 05:11:24;;;;;;;3.80;1.20;;;19.00;93.30;;;;;;4591189;19;20424;-68
2023/10/08 05:14:55;;;;;;;2.85;1.30;;;19.10;92.70;;;;;;4591348;19;20020;-68
2023/10/08 05:16:43;;;;;;;3.35;1.23;;;19.10;92.50;;;;;;4592549;19;20449;-69
2023/10/08 05:18:51;;;;;;;2.25;0.95;;;19.20;92.80;;;;;;4591430;19;20010;-69
2023/10/08 05:22:43;;;;;;;3.97;1.48;;;19.30;92.40;;;;;;4592422;19;20421;-68
2023/10/08 05:24:22;;;;;;;5.07;3.08;;;19.30;92.70;;;;;;4590989;19;20042;-69
2023/10/08 05:26:08;;;;;;;4.50;2.17;;;19.40;93.30;;;;;;4592615;19;20312;-68
2023/10/08 05:29:51;;;;;;;4.25;1.70;;;19.40;93.00;;;;;;4591287;19;20433;-70
2023/10/08 05:31:40;;;;;;;3.58;1.30;;;19.40;93.20;;;;;;4592136;19;20019;-69
2023/10/08 05:35:30;;;;;;;2.67;1.30;;;19.40;93.10;;;;;;4590774;19;20017;-69
2023/10/08 05:38:48;;;;;;;2.92;0.90;;;19.40;92.80;;;;;;4592145;19;20007;-70
2023/10/08 05:41:27;;;;;;;1.90;0.80;;;19.30;93.00;;;;;;4591057;19;20013;-69
2023/10/08 05:42:45;;;;;;;1.17;0.68;;;19.40;92.80;;;;;;4590133;19;20007;-69
2023/10/08 05:46:19;;;;;;;1.50;0.55;;;19.40;93.10;;;;;;4591999;19;20006;-69
2023/10/08 05:48:13;;;;;;;1.50;0.70;;;19.30;93.20;;;;;;4592003;19;20003;-68
2023/10/08 05:50:28;;;;;;;1.30;0.70;;;19.30;93.00;;;;;;4591836;19;20017;-68
2023/10/08 05:53:43;;;;;;;2.05;1.00;;;19.30;92.60;;;;;;4591852;19;20006;-68
2023/10/08 05:55:27;;;;;;;1.83;0.80;;;19.30;92.50;;;;;;4590871;19;20015;-69
2023/10/08 05:58:59;;;;;;;1.52;0.65;;;19.30;92.90;;;;;;4590498;19;20011;-68
2023/10/08 06:02:48;;;;;;;2.63;1.00;;;19.30;92.70;;;;;;4591454;19;20074;-68
2023/10/08 06:04:20;;;;;;;1.40;0.80;;;19.30;93.20;;;;;;4590267;19;20027;-68
2023/10/08 06:06:22;;;;;;;1.15;0.60;;;19.30;93.00;;;;;;4589992;19;20045;-68
2023/10/08 06:09:39;;;;;;;2.10;1.00;;;19.30;93.40;;;;;;4590490;19;19999;-68
2023/10/08 06:11:27;;;;;;;2.33;1.27;;;19.40;93.00;;;;;;4590768;19;20002;-69
2023/10/08 06:14:13;;;;;;;2.20;0.90;;;19.40;92.90;;;;;;4589638;19;20309;-68
2023/10/08 06:15:27;;;;;;;1.83;0.80;;;19.50;93.00;;;;;;4587697;19;20019;-68
2023/10/08 06:17:23;;;;;;;2.58;1.20;;;19.70;92.80;;;;;;4591057;19;20002;-68
2023/10/08 06:18:57;;;;;;;3.30;0.98;;;19.70;92.50;;;;;;4590319;19;19998;-69
2023/10/08 06:20:36;;;;;;;1.50;0.65;;;19.80;92.10;;;;;;4591589;19;20010;-69
2023/10/08 06:22:11;;;;;;;2.20;1.00;;;19.80;92.20;;;;;;4590384;19;20429;-69
2023/10/08 06:23:46;;;;;;;3.88;1.70;;;19.90;92.10;;;;;;4591065;19;20447;-68
2023/10/08 06:25:23;;;;;;;3.58;1.40;;;19.90;92.00;;;;;;4590326;19;20007;-68
2023/10/08 06:27:04;;;;;;;2.97;1.48;;;19.90;91.70;;;;;;4591699;19;20425;-68
2023/10/08 06:28:39;;;;;;;3.95;1.55;;;19.90;91.40;;;;;;4591627;19;20425;-69
2023/10/08 06:30:16;;;;;;;4.53;2.05;;;19.90;91.20;;;;;;4591343;19;20306;-69
2023/10/08 06:31:55;;;;;;;3.65;1.80;;;19.90;91.10;;;;;;4591557;19;20007;-68
2023/10/08 06:33:34;;;;;;;4.00;1.52;;;19.90;90.90;;;;;;4591327;19;20017;-69
2023/10/08 06:35:17;;;;;;;3.13;1.20;;;19.90;90.90;;;;;;4589759;19;20003;-69
2023/10/08 06:36:54;;;;;;;4.32;1.20;;;19.90;91.00;;;;;;4590218;19;20006;-69
2023/10/08 06:38:35;;;;;;;2.38;1.17;;;19.90;91.00;;;;;;4589840;19;20066;-69
2023/10/08 06:40:40;;;;;;;3.67;1.10;;;19.90;91.30;;;;;;4589836;19;20086;-68
2023/10/08 06:42:09;;;;;;;4.07;1.67;;;19.90;91.10;;;;;;4590871;19;20007;-68
2023/10/08 06:43:48;;;;;;;2.08;1.15;;;19.90;91.20;;;;;;4590055;19;20007;-68
2023/10/08 06:45:27;;;;;;;2.78;1.42;;;19.90;91.20;;;;;;4588825;19;20300;-68
2023/10/08 06:47:09;;;;;;;2.72;1.08;;;19.90;91.00;;;;;;4589924;19;20433;-69
2023/10/08 06:48:43;;;;;;;2.42;1.30;;;19.90;91.40;;;;;;4593839;19;20062;-69
2023/10/08 06:50:21;;;;;;;4.13;1.25;;;19.90;91.10;;;;;;4594505;19;20017;-68
2023/10/08 06:51:59;;;;;;;2.33;1.30;;;19.90;91.00;;;;;;4594160;19;20336;-69
2023/10/08 06:53:33;;;;;;;2.72;1.02;;;19.80;91.00;;;;;;4595405;19;20005;-69
2023/10/08 06:55:17;;;;;;;1.33;0.80;;;19.80;90.80;;;;;;4593741;19;20425;-68
2023/10/08 06:56:52;;;;;;;2.30;0.77;;;19.70;90.40;;;;;;4594379;19;20007;-68
2023/10/08 06:58:26;;;;;;;1.73;0.85;;;19.60;90.30;;;;;;4595387;19;20306;-68
2023/10/08 07:00:01;;;;;;;2.08;1.23;;;19.60;90.40;;;;;;4595779;19;20018;-68
2023/10/08 07:01:39;;;;;;;1.63;0.90;;;19.60;90.50;;;;;;4595526;19;20003;-68
2023/10/08 07:03:17;;;;;;;2.58;1.33;;;19.60;90.60;;;;;;4593778;19;20347;-68
2023/10/08 07:04:53;;;;;;;2.08;1.20;;;19.60;90.40;;;;;;4593130;19;20019;-68
2023/10/08 07:06:31;;;;;;;2.92;1.00;;;19.50;90.40;;;;;;4595132;19;20009;-68
2023/10/08 07:08:06;;;;;;;2.53;0.70;;;19.50;90.20;;;;;;4594182;19;20099;-68
2023/10/08 07:09:43;;;;;;;1.55;0.70;;;19.40;90.40;;;;;;4594914;19;19998;-68
2023/10/08 07:11:18;;;;;;;1.38;0.73;;;19.50;90.30;;;;;;4595425;19;20010;-69
2023/10/08 07:12:53;;;;;;;1.48;0.70;;;19.40;90.70;;;;;;4595062;19;20003;-69
2023/10/08 07:14:29;;;;;;;1.90;0.60;;;19.40;90.30;;;;;;4593692;19;20002;-69
2023/10/08 07:16:04;;;;;;;1.45;0.60;;;19.30;90.10;;;;;;4594531;19;20180;-69
2023/10/08 07:17:40;;;;;;;1.55;0.65;;;19.30;90.10;;;;;;4594649;19;19999;-69
2023/10/08 07:19:19;;;;;;;1.67;0.52;;;19.20;89.90;;;;;;4595098;19;20085;-69
2023/10/08 07:20:55;;;;;;;1.25;0.60;;;19.10;89.80;;;;;;4595046;19;20024;-69
2023/10/08 07:22:28;;;;;;;0.80;0.63;;;19.20;90.00;;;;;;4593737;19;20287;-69
2023/10/08 07:24:09;;;;;;;3.03;0.70;;;19.20;90.10;;;;;;4594446;19;20339;-70
2023/10/08 07:25:46;;;;;;;1.88;0.77;;;19.30;90.10;;;;;;4594885;19;20003;-74
2023/10/08 07:27:24;;;;;;;1.70;0.90;;;19.40;90.40;;;;;;4592950;19;20006;-73
2023/10/08 07:29:07;;;;;;;1.00;0.60;;;19.40;90.00;;;;;;4594310;19;20007;-74
2023/10/08 07:30:49;;;;;;;1.75;0.60;;;19.40;89.20;;;;;;4593070;19;20002;-73
2023/10/08 07:32:25;;;;;;;2.05;0.52;;;19.30;88.00;;;;;;4593038;19;20460;-73
2023/10/08 07:34:44;;;;;;;2.75;0.63;;;19.30;87.80;;;;;;4593708;19;20013;-73
2023/10/08 07:36:11;;;;;;;1.25;0.65;;;19.20;88.40;;;;;;4592135;19;20106;-73
2023/10/08 07:37:48;;;;;;;1.63;0.60;;;19.30;88.60;;;;;;4594023;19;20007;-73
2023/10/08 07:41:02;;;;;;;1.02;0.57;;;19.20;88.60;;;;;;4593914;19;20002;-73
2023/10/08 07:42:38;;;;;;;1.40;0.50;;;19.20;88.40;;;;;;4593921;19;20006;-73
2023/10/08 07:44:16;;;;;;;1.48;0.70;;;19.10;87.60;;;;;;4593635;19;20013;-73
2023/10/08 07:45:54;;;;;;;1.77;0.70;;;19.20;88.00;;;;;;4593860;19;20012;-73
2023/10/08 07:47:30;;;;;;;1.23;0.52;;;19.10;88.60;;;;;;4594432;19;20007;-83
2023/10/08 07:49:07;;;;;;;1.48;0.60;;;19.00;87.80;;;;;;4592518;19;20334;-75
2023/10/08 07:50:47;;;;;;;2.42;0.82;;;19.00;88.40;;;;;;4593527;19;20034;-75
2023/10/08 07:52:23;;;;;;;1.83;0.80;;;19.00;88.60;;;;;;4592486;19;20021;-75
2023/10/08 07:54:01;;;;;;;1.23;0.45;;;19.00;88.70;;;;;;4591796;19;20154;-75
2023/10/08 07:55:37;;;;;;;1.95;0.80;;;19.10;88.70;;;;;;4590699;19;20006;-75
2023/10/08 07:57:25;;;;;;;1.38;0.50;;;19.20;88.90;;;;;;4592089;19;20436;-75
2023/10/08 07:59:08;;;;;;;2.25;0.60;;;19.20;89.10;;;;;;4592249;19;20002;-75
2023/10/08 08:00:51;;;;;;;1.70;0.50;;;19.10;87.80;;;;;;4593621;19;20018;-75
2023/10/08 08:02:27;;;;;;;1.50;0.60;;;19.10;87.20;;;;;;4592215;19;20015;-75
2023/10/08 08:04:10;;;;;;;1.10;0.70;;;19.00;87.40;;;;;;4591752;19;20513;-75
2023/10/08 08:05:46;;;;;;;2.47;1.20;;;19.00;86.60;;;;;;4593425;19;20002;-74
2023/10/08 08:07:24;;;;;;;1.73;0.60;;;19.00;88.10;;;;;;4593138;19;20006;-75
2023/10/08 08:09:02;;;;;;;1.25;0.60;;;19.00;87.70;;;;;;4592064;19;20317;-75
2023/10/08 08:10:43;;;;;;;2.53;0.60;;;19.00;87.40;;;;;;4593232;19;20029;-75
2023/10/08 08:12:25;;;;;;;1.33;0.47;;;19.00;87.00;;;;;;4591906;19;20013;-75
2023/10/08 08:14:07;;;;;;;2.10;0.70;;;19.00;87.10;;;;;;4591900;19;20007;-75
2023/10/08 08:15:50;;;;;;;2.17;0.60;;;18.80;85.80;;;;;;4591902;19;20438;-75
2023/10/08 08:17:27;;;;;;;1.50;0.60;;;18.70;86.10;;;;;;4593031;19;20043;-75
2023/10/08 08:19:04;;;;;;;2.72;0.80;;;18.80;86.80;;;;;;4591622;19;20126;-74
2023/10/08 08:20:43;;;;;;;0.90;0.60;;;18.90;87.20;;;;;;4591768;19;20054;-74
2023/10/08 08:22:23;;;;;;;0.95;0.50;;;18.80;88.00;;;;;;4592843;19;20084;-75
2023/10/08 08:24:05;;;;;;;1.00;0.40;;;18.80;87.00;;;;;;4593084;19;20007;-75
2023/10/08 08:26:06;;;;;;;2.13;0.70;;;18.90;87.50;;;;;;4592832;19;20023;-74
2023/10/08 08:27:46;;;;;;;1.88;0.90;;;18.90;87.00;;;;;;4592619;19;20003;-74
2023/10/08 08:29:24;;;;;;;3.63;1.55;;;18.70;85.50;;;;;;4592937;19;20014;-74
2023/10/08 08:31:13;;;;;;;3.78;1.38;;;18.70;85.80;;;;;;4592782;19;20011;-74
2023/10/08 08:32:49;;;;;;;2.60;1.80;;;18.80;86.00;;;;;;4591437;19;20015;-74
2023/10/08 08:34:27;;;;;;;1.85;0.82;;;18.70;85.30;;;;;;4592011;19;20102;-75
2023/10/08 08:36:05;;;;;;;1.75;0.85;;;18.70;85.20;;;;;;4592538;19;20062;-74
2023/10/08 08:37:41;;;;;;;2.72;1.05;;;18.70;86.00;;;;;;4592366;19;20011;-75
2023/10/08 08:39:35;;;;;;;0.90;0.60;;;18.60;84.60;;;;;;4592800;19;20025;-74
2023/10/08 08:41:12;;;;;;;3.15;1.23;;;18.60;85.00;;;;;;4592441;19;20465;-74
2023/10/08 08:42:49;;;;;;;2.80;1.55;;;18.70;84.70;;;;;;4592191;19;20016;-74
2023/10/08 08:44:32;;;;;;;4.10;2.08;;;18.70;84.10;;;;;;4590425;19;20350;-74
2023/10/08 08:46:10;;;;;;;2.05;1.10;;;18.70;83.80;;;;;;4591924;19;20011;-74
2023/10/08 08:47:46;;;;;;;3.60;1.15;;;18.60;83.50;;;;;;4592319;19;20030;-75
2023/10/08 08:49:24;;;;;;;7.13;4.35;;;18.60;83.60;;;;;;4592223;19;20010;-74
2023/10/08 08:51:00;;;;;;;13.05;11.68;;;18.60;83.40;;;;;;4590703;19;20006;-74
2023/10/08 08:52:40;;;;;;;8.77;7.88;;;18.60;83.80;;;;;;4592173;19;20097;-75
2023/10/08 08:54:17;;;;;;;6.18;5.57;;;18.70;84.80;;;;;;4590273;19;20010;-74
2023/10/08 08:55:54;;;;;;;7.60;4.45;;;18.80;85.70;;;;;;4592186;19;20014;-74
2023/10/08 08:57:30;;;;;;;10.85;5.35;;;18.80;84.90;;;;;;4590979;19;20006;-74
2023/10/08 08:59:11;;;;;;;3.30;1.20;;;18.60;84.30;;;;;;4591996;19;20436;-74
2023/10/08 09:00:48;;;;;;;2.45;1.20;;;18.50;83.40;;;;;;4591989;19;20006;-74
2023/10/08 09:02:24;;;;;;;5.18;2.42;;;18.50;83.00;;;;;;4591867;19;19999;-74
2023/10/08 09:04:05;;;;;;;8.05;5.60;;;18.50;83.60;;;;;;4592510;19;20007;-74
2023/10/08 09:05:42;;;;;;;4.80;3.15;;;18.60;84.40;;;;;;4592640;19;20031;-74
2023/10/08 09:07:21;;;;;;;4.68;2.95;;;18.60;84.00;;;;;;4591899;19;20013;-75
2023/10/08 09:11:09;;;;;;;4.32;3.17;;;18.70;84.40;;;;;;4587105;19;20006;-74
2023/10/08 09:12:45;;;;;;;3.03;1.67;;;18.70;84.50;;;;;;4589445;19;20458;-74
2023/10/08 09:14:23;;;;;;;5.30;3.63;;;18.70;82.90;;;;;;4588514;19;20411;-74
2023/10/08 09:16:06;;;;;;;2.65;1.10;;;18.60;82.10;;;;;;4589542;19;20073;-74
2023/10/08 09:17:43;;;;;;;1.73;0.85;;;18.50;81.40;;;;;;4589403;19;20325;-74
2023/10/08 09:19:23;;;;;;;2.42;1.40;;;18.60;81.80;;;;;;4589530;19;20041;-74
2023/10/08 09:21:13;;;;;;;2.72;1.30;;;18.60;83.30;;;;;;4589537;19;20006;-75
2023/10/08 09:23:13;;;;;;;2.10;1.30;;;18.70;83.00;;;;;;4591220;19;19998;-75
2023/10/08 09:24:52;;;;;;;1.95;1.00;;;18.60;82.40;;;;;;4589485;19;20491;-75
2023/10/08 09:26:29;;;;;;;2.47;0.90;;;18.60;81.70;;;;;;4589359;19;20009;-75
2023/10/08 09:28:07;;;;;;;2.13;0.98;;;18.70;82.30;;;;;;4589569;19;20040;-75